North Bend, Nebraska
Current Conditions -  °F | °C
As of 8:55 PM on Wednesday 26 Nov 2014 (Local Time) from KFET Reporting Station
Overcast Overcast  
Wind Chill: 13°   Ceiling: 1200
Heat Index: 23°   Visibility: 10mi
Dew Point: 19°   Wind: 9mph
Humidity: 84%   Direction: 320°NW
Pressure: 30.42"   Gusts: NA
Location:  41.46°N, 96.78°W
Report Text: KFET 270255Z AUTO 32008KT 10SM OVC012 M05/M07 A3042 RMK AO2 T10501074
Loading
Personal Weather Stations






























Interactive Weather Map New forecast layout! Learn more

10-Day Weather Forecast

Advertisements
Track Severe Weather on mobile